Time;durP1;ratioP1;P1;durP2;ratioP2;P2;SDS_P1;SDS_P2;PMS_P1;PMS_P2;Temp;Humidity;BMP_temperature;BMP_pressure;BME280_temperature;BME280_humidity;BME280_pressure;Samples;Min_cycle;Max_cycle;Signal;HPM_P1;HPM_P2
2024/02/15 00:01:10;;;;;;;5.73;5.03;;;;;;;10.46;66.55;96718.56;5014617;28;20204;-70
2024/02/15 00:03:36;;;;;;;5.63;4.90;;;;;;;10.43;66.58;96721.31;5018759;28;20413;-70
2024/02/15 00:06:01;;;;;;;5.83;5.00;;;;;;;10.47;66.73;96720.28;5025312;28;20175;-69
2024/02/15 00:08:29;;;;;;;6.23;4.67;;;;;;;10.42;66.96;96724.81;5025265;28;20302;-70
2024/02/15 00:10:55;;;;;;;6.73;6.00;;;;;;;10.44;66.54;96713.38;5025974;28;20167;-69
2024/02/15 00:13:20;;;;;;;4.93;4.40;;;;;;;10.51;66.34;96707.00;5025155;28;20979;-71
2024/02/15 00:15:48;;;;;;;6.83;4.60;;;;;;;10.44;66.71;96704.63;5029520;28;20172;-70
2024/02/15 00:18:14;;;;;;;8.50;5.10;;;;;;;10.40;66.70;96706.53;5029408;28;20199;-70
2024/02/15 00:20:39;;;;;;;7.23;5.23;;;;;;;10.27;67.18;96705.25;5029483;28;20516;-70
2024/02/15 00:23:06;;;;;;;6.70;4.97;;;;;;;10.19;67.54;96705.53;5029772;28;20293;-69
2024/02/15 00:25:32;;;;;;;5.90;5.30;;;;;;;10.22;67.34;96715.06;5030313;28;20726;-69
2024/02/15 00:27:57;;;;;;;8.73;5.37;;;;;;;10.25;66.98;96728.94;5022375;28;20480;-70
2024/02/15 00:30:23;;;;;;;11.03;5.77;;;;;;;10.31;67.05;96720.84;5029375;28;20206;-70
2024/02/15 00:32:48;;;;;;;5.70;5.10;;;;;;;10.32;66.90;96721.69;5029285;28;20167;-70
2024/02/15 00:35:14;;;;;;;5.67;5.07;;;;;;;10.38;66.21;96724.09;5028245;28;20274;-69
2024/02/15 00:37:42;;;;;;;7.80;5.50;;;;;;;10.36;66.64;96716.28;5028875;28;20286;-71
2024/02/15 00:40:08;;;;;;;6.17;5.57;;;;;;;10.42;66.49;96720.44;5027516;28;20217;-70
2024/02/15 00:42:34;;;;;;;5.90;5.30;;;;;;;10.28;67.10;96714.84;5025216;28;20434;-71
2024/02/15 00:44:59;;;;;;;7.90;5.60;;;;;;;10.13;67.00;96714.50;5029183;28;20437;-70
2024/02/15 00:47:25;;;;;;;10.73;6.97;;;;;;;10.14;67.46;96723.22;5029119;28;20194;-69
2024/02/15 00:49:50;;;;;;;6.07;5.10;;;;;;;10.15;67.33;96720.53;5029279;28;20179;-70
2024/02/15 00:52:19;;;;;;;7.33;6.07;;;;;;;10.05;67.33;96727.03;5029258;28;20570;-70
2024/02/15 00:54:45;;;;;;;9.40;6.33;;;;;;;9.96;67.78;96724.75;5024031;28;20238;-70
2024/02/15 00:57:11;;;;;;;8.37;6.13;;;;;;;9.94;67.92;96724.81;5019692;28;20957;-70
2024/02/15 00:59:37;;;;;;;6.70;5.70;;;;;;;9.97;67.76;96723.84;5028472;28;20460;-70
2024/02/15 01:02:03;;;;;;;5.73;5.20;;;;;;;9.90;67.70;96722.34;5025700;28;20637;-69
2024/02/15 01:04:28;;;;;;;6.10;5.50;;;;;;;9.83;67.89;96721.72;5020508;28;20176;-69
2024/02/15 01:06:55;;;;;;;6.63;5.00;;;;;;;9.93;67.34;96719.63;5028749;28;20523;-70
2024/02/15 01:09:22;;;;;;;8.03;5.83;;;;;;;9.89;68.29;96715.38;5028629;28;20179;-70
2024/02/15 01:11:47;;;;;;;5.97;5.40;;;;;;;9.89;67.92;96718.84;5028269;28;20495;-70
2024/02/15 01:14:15;;;;;;;5.37;4.87;;;;;;;9.94;68.10;96722.19;5028351;28;20418;-70
2024/02/15 01:16:44;;;;;;;5.40;4.70;;;;;;;9.92;67.75;96724.00;5019500;28;20187;-70
2024/02/15 01:19:09;;;;;;;6.53;4.93;;;;;;;9.95;67.95;96723.88;5028623;28;20415;-70
2024/02/15 01:21:35;;;;;;;5.50;5.00;;;;;;;9.83;68.03;96721.72;5028495;28;21046;-71
2024/02/15 01:24:00;;;;;;;5.70;5.20;;;;;;;9.86;67.92;96720.75;5028254;28;20267;-70
2024/02/15 01:26:26;;;;;;;6.33;5.63;;;;;;;9.88;67.90;96722.41;5026567;28;20172;-70
2024/02/15 01:28:52;;;;;;;7.47;5.33;;;;;;;9.87;67.90;96720.66;5028309;28;20300;-70
2024/02/15 01:31:17;;;;;;;7.70;5.80;;;;;;;9.82;68.10;96720.00;5024749;28;20434;-70
2024/02/15 01:33:44;;;;;;;7.20;5.10;;;;;;;9.79;68.44;96719.25;5028197;28;20203;-70
2024/02/15 01:36:16;;;;;;;7.33;5.73;;;;;;;9.82;68.35;96724.38;5027828;28;20187;-70
2024/02/15 01:38:42;;;;;;;6.37;5.77;;;;;;;9.80;68.51;96721.81;5027978;28;20430;-70
2024/02/15 01:41:08;;;;;;;8.40;7.00;;;;;;;9.92;67.57;96721.38;5027772;28;21078;-69
2024/02/15 01:43:33;;;;;;;8.40;5.90;;;;;;;9.92;67.80;96717.88;5028230;28;20179;-69
2024/02/15 01:46:03;;;;;;;6.50;5.43;;;;;;;9.96;67.91;96716.88;5026844;28;20277;-69
2024/02/15 01:48:29;;;;;;;10.53;5.30;;;;;;;9.93;68.02;96720.47;5019571;28;20237;-70
2024/02/15 01:50:55;;;;;;;6.30;5.70;;;;;;;9.90;68.26;96715.34;5027961;28;20488;-70
2024/02/15 01:53:21;;;;;;;9.30;6.07;;;;;;;9.85;67.89;96714.66;5028249;28;20909;-69
2024/02/15 01:55:46;;;;;;;6.23;5.63;;;;;;;9.67;68.98;96704.81;5027955;28;20409;-69
2024/02/15 01:58:12;;;;;;;7.30;5.10;;;;;;;9.74;68.55;96708.94;5025693;28;20211;-70
2024/02/15 02:00:39;;;;;;;6.73;5.60;;;;;;;9.74;68.62;96712.41;5013189;28;20318;-70
2024/02/15 02:03:05;;;;;;;6.73;6.00;;;;;;;9.72;68.72;96703.75;5024235;28;20688;-70
2024/02/15 02:05:31;;;;;;;7.63;5.80;;;;;;;9.63;68.61;96698.81;5027468;28;20920;-70
2024/02/15 02:07:59;;;;;;;8.50;5.53;;;;;;;9.53;69.04;96705.31;5027388;28;20418;-70
2024/02/15 02:10:27;;;;;;;6.73;5.67;;;;;;;9.52;69.21;96696.59;5018820;28;20172;-70
2024/02/15 02:12:53;;;;;;;7.87;7.07;;;;;;;9.54;69.27;96688.66;5025204;28;20432;-69
2024/02/15 02:15:19;;;;;;;8.40;6.80;;;;;;;9.62;68.79;96689.25;5025983;28;20957;-69
2024/02/15 02:17:50;;;;;;;5.83;5.20;;;;;;;9.64;69.05;96690.06;5026034;28;20686;-69
2024/02/15 02:20:16;;;;;;;7.67;6.00;;;;;;;9.52;69.32;96691.34;5021147;28;20677;-69
2024/02/15 02:22:46;;;;;;;7.13;6.43;;;;;;;9.43;69.84;96690.81;5028334;28;20532;-69
2024/02/15 02:25:13;;;;;;;12.23;6.57;;;;;;;9.42;69.83;96687.31;5033483;28;20178;-70
2024/02/15 02:27:38;;;;;;;7.70;6.23;;;;;;;9.37;69.77;96681.41;5027054;28;20462;-69
2024/02/15 02:30:09;;;;;;;6.90;6.20;;;;;;;9.43;69.55;96678.56;5019675;28;20462;-69
2024/02/15 02:32:35;;;;;;;8.20;6.03;;;;;;;9.32;69.48;96678.09;5027173;28;20274;-69
2024/02/15 02:35:01;;;;;;;6.83;6.13;;;;;;;9.36;69.12;96682.31;5025765;28;20430;-69
2024/02/15 02:37:27;;;;;;;7.13;5.90;;;;;;;9.33;69.18;96685.06;5026800;28;20492;-70
2024/02/15 02:39:52;;;;;;;7.90;6.10;;;;;;;9.32;69.64;96689.41;5014946;28;20901;-69
2024/02/15 02:42:18;;;;;;;6.97;6.20;;;;;;;9.22;69.75;96685.41;5025598;28;20199;-69
2024/02/15 02:44:44;;;;;;;6.77;5.60;;;;;;;9.25;69.26;96684.44;5029183;28;20171;-69
2024/02/15 02:47:09;;;;;;;9.17;6.37;;;;;;;9.21;70.00;96681.09;5037195;28;20196;-71
2024/02/15 02:49:35;;;;;;;7.03;6.33;;;;;;;9.23;69.84;96692.34;5039141;28;20494;-70
2024/02/15 02:52:01;;;;;;;6.73;5.93;;;;;;;9.30;69.19;96685.13;5035240;28;20183;-70
2024/02/15 02:54:26;;;;;;;6.73;6.13;;;;;;;9.28;69.67;96689.56;5029085;28;20171;-70
2024/02/15 02:56:52;;;;;;;8.00;6.40;;;;;;;9.26;69.43;96694.00;5009418;28;20270;-70
2024/02/15 02:59:17;;;;;;;6.83;6.13;;;;;;;9.28;69.80;96686.94;5025113;28;20285;-70
2024/02/15 03:01:42;;;;;;;6.63;5.30;;;;;;;9.17;69.80;96689.09;5026269;28;20180;-70
2024/02/15 03:04:08;;;;;;;7.43;6.73;;;;;;;9.13;70.13;96690.94;5026446;28;20251;-70
2024/02/15 03:06:34;;;;;;;6.77;6.03;;;;;;;9.12;70.24;96686.63;5023198;28;20171;-70
2024/02/15 03:08:59;;;;;;;8.50;6.00;;;;;;;9.08;70.70;96685.88;5023658;28;20832;-70
2024/02/15 03:11:25;;;;;;;6.50;5.87;;;;;;;9.12;69.77;96681.41;5026396;28;20534;-70
2024/02/15 03:13:50;;;;;;;6.07;5.13;;;;;;;9.04;70.40;96681.63;5026249;28;20254;-69
2024/02/15 03:16:16;;;;;;;7.30;6.60;;;;;;;8.99;70.67;96680.94;5026363;28;20174;-71
2024/02/15 03:18:43;;;;;;;9.63;6.33;;;;;;;9.05;70.28;96685.97;5019655;28;20781;-70
2024/02/15 03:21:10;;;;;;;11.90;8.00;;;;;;;9.14;69.89;96683.94;5023122;28;20295;-71
2024/02/15 03:23:36;;;;;;;10.00;6.93;;;;;;;9.01;70.62;96683.50;5025951;28;20524;-70
2024/02/15 03:26:03;;;;;;;9.17;7.67;;;;;;;9.10;70.34;96684.06;5025960;28;20969;-70
2024/02/15 03:28:29;;;;;;;16.07;7.63;;;;;;;9.17;70.12;96683.88;5022402;28;20575;-70
2024/02/15 03:30:55;;;;;;;12.30;7.53;;;;;;;9.13;70.67;96679.63;5025598;28;20402;-70
2024/02/15 03:33:26;;;;;;;11.33;7.30;;;;;;;9.17;70.55;96683.88;5017819;28;20183;-70
2024/02/15 03:35:52;;;;;;;14.20;8.13;;;;;;;9.13;70.58;96680.47;5026258;28;20422;-70
2024/02/15 03:38:17;;;;;;;11.57;6.90;;;;;;;9.14;70.73;96686.56;5020101;28;20448;-70
2024/02/15 03:40:42;;;;;;;12.40;8.30;;;;;;;9.08;70.87;96680.63;5025849;28;20825;-70
2024/02/15 03:43:08;;;;;;;12.63;7.63;;;;;;;9.16;70.66;96682.13;5026323;28;20168;-69
2024/02/15 03:45:34;;;;;;;14.50;7.37;;;;;;;9.19;70.07;96682.03;5025574;28;20298;-69
2024/02/15 03:48:00;;;;;;;10.00;7.50;;;;;;;9.29;70.05;96678.19;5020216;28;20825;-69
2024/02/15 03:50:25;;;;;;;11.60;7.13;;;;;;;9.17;70.35;96674.25;5025461;28;20214;-69
2024/02/15 03:52:51;;;;;;;12.07;7.90;;;;;;;9.13;70.55;96672.63;5017681;28;20535;-70
2024/02/15 03:55:16;;;;;;;11.53;8.50;;;;;;;9.07;70.89;96665.84;5025507;28;20186;-70
2024/02/15 03:57:43;;;;;;;12.83;7.97;;;;;;;9.02;70.66;96666.88;5022723;28;20195;-69
2024/02/15 04:00:11;;;;;;;16.47;8.10;;;;;;;8.96;70.25;96667.09;5026277;28;20231;-70
2024/02/15 04:02:36;;;;;;;17.33;7.90;;;;;;;8.95;70.65;96674.06;5023894;28;20434;-70
2024/02/15 04:05:04;;;;;;;11.50;8.10;;;;;;;8.89;70.34;96669.06;5025965;28;20418;-69
2024/02/15 04:07:30;;;;;;;11.10;7.67;;;;;;;8.99;70.81;96674.84;5023601;28;20195;-70
2024/02/15 04:09:56;;;;;;;10.97;7.80;;;;;;;8.89;70.47;96671.69;5025979;28;20459;-70
2024/02/15 04:12:22;;;;;;;10.60;7.97;;;;;;;8.96;70.63;96681.03;5025017;28;20433;-69
2024/02/15 04:14:48;;;;;;;13.50;7.87;;;;;;;8.98;70.15;96674.00;5025976;28;21039;-70
2024/02/15 04:17:16;;;;;;;10.43;8.03;;;;;;;8.93;70.05;96675.91;5020820;28;20204;-70
2024/02/15 04:19:44;;;;;;;10.10;7.97;;;;;;;9.04;69.94;96679.00;5019191;28;20462;-70
2024/02/15 04:22:10;;;;;;;18.27;7.93;;;;;;;8.98;69.88;96674.00;5025621;28;20417;-70
2024/02/15 04:24:39;;;;;;;8.50;7.70;;;;;;;8.89;70.03;96674.31;5025145;28;20410;-70
2024/02/15 04:27:12;;;;;;;11.13;8.37;;;;;;;8.88;70.93;96673.44;5022375;28;20589;-70
2024/02/15 04:29:40;;;;;;;8.87;7.90;;;;;;;8.85;71.36;96670.91;5024903;28;20405;-71
2024/02/15 04:32:10;;;;;;;11.40;9.10;;;;;;;8.89;70.85;96661.22;5024686;28;20418;-70
2024/02/15 04:34:38;;;;;;;10.20;7.23;;;;;;;8.83;71.12;96661.41;5029558;28;20406;-70
2024/02/15 04:37:06;;;;;;;7.73;6.70;;;;;;;8.93;70.69;96665.44;5028691;28;20448;-69
2024/02/15 04:39:36;;;;;;;9.50;7.70;;;;;;;8.88;70.81;96667.34;5028340;28;20406;-70
2024/02/15 04:42:02;;;;;;;8.33;7.00;;;;;;;8.90;70.90;96657.69;5040316;28;20407;-70
2024/02/15 04:44:28;;;;;;;7.93;5.80;;;;;;;8.94;70.77;96661.06;5045306;28;20387;-70
2024/02/15 04:46:54;;;;;;;8.53;7.03;;;;;;;8.81;71.36;96660.59;5036958;28;20480;-68
2024/02/15 04:49:20;;;;;;;13.57;7.20;;;;;;;8.73;71.30;96646.91;5026861;28;20595;-69
2024/02/15 04:51:47;;;;;;;12.00;7.00;;;;;;;8.80;71.39;96656.28;5025977;28;20402;-69
2024/02/15 04:54:13;;;;;;;10.10;6.77;;;;;;;8.81;71.32;96664.09;5025896;28;20593;-69
2024/02/15 04:56:42;;;;;;;10.23;6.73;;;;;;;8.79;71.14;96659.81;5017906;28;20473;-70
2024/02/15 04:59:17;;;;;;;11.47;6.23;;;;;;;8.69;71.52;96665.34;5023937;28;20233;-70
2024/02/15 05:01:42;;;;;;;13.90;7.27;;;;;;;8.74;70.59;96661.69;5020121;28;20476;-69
2024/02/15 05:04:09;;;;;;;12.23;5.50;;;;;;;8.74;70.53;96669.53;5029147;28;20422;-69
2024/02/15 05:06:36;;;;;;;12.00;6.10;;;;;;;8.65;71.61;96666.34;5028004;28;20590;-69
2024/02/15 05:09:07;;;;;;;10.03;6.50;;;;;;;8.59;71.48;96670.91;5016980;28;20437;-70
2024/02/15 05:11:35;;;;;;;15.07;7.87;;;;;;;8.57;72.10;96672.72;5008798;28;20864;-70
2024/02/15 05:14:01;;;;;;;13.13;6.53;;;;;;;8.73;71.30;96666.09;5008844;28;20421;-70
2024/02/15 05:16:26;;;;;;;19.00;5.90;;;;;;;8.72;71.28;96664.38;5009218;28;20422;-70
2024/02/15 05:18:53;;;;;;;8.27;5.00;;;;;;;8.59;71.46;96658.66;5015046;28;20453;-70
2024/02/15 05:21:19;;;;;;;11.83;6.47;;;;;;;8.62;71.62;96661.22;5028537;28;20211;-70
2024/02/15 05:23:45;;;;;;;10.00;5.80;;;;;;;8.56;71.17;96663.16;5028689;28;20464;-70
2024/02/15 05:26:12;;;;;;;9.50;6.80;;;;;;;8.37;72.03;96671.53;5028766;28;20413;-70
2024/02/15 05:28:38;;;;;;;10.73;7.20;;;;;;;8.05;73.05;96673.38;5014880;28;20464;-69
2024/02/15 05:31:17;;;;;;;11.17;6.70;;;;;;;8.12;73.38;96670.56;5024870;28;20922;-69
2024/02/15 05:33:44;;;;;;;9.03;6.87;;;;;;;8.04;73.06;96676.03;5009828;28;20180;-69
2024/02/15 05:36:20;;;;;;;8.93;7.13;;;;;;;8.04;72.73;96668.19;5026551;28;20427;-71
2024/02/15 05:38:47;;;;;;;8.60;7.50;;;;;;;8.05;73.38;96665.53;5028777;28;20976;-69
2024/02/15 05:41:13;;;;;;;9.73;7.87;;;;;;;8.15;72.18;96663.50;5028298;28;20467;-69
2024/02/15 05:43:44;;;;;;;8.20;7.37;;;;;;;8.14;72.45;96667.00;5028420;28;20906;-70
2024/02/15 05:46:10;;;;;;;10.33;7.20;;;;;;;8.05;72.69;96668.16;5022460;28;20180;-69
2024/02/15 05:48:36;;;;;;;11.00;8.47;;;;;;;8.12;72.69;96666.19;5008962;28;20660;-70
2024/02/15 05:51:03;;;;;;;9.30;8.20;;;;;;;8.22;71.68;96656.31;5015938;28;20413;-69
2024/02/15 05:53:29;;;;;;;8.00;6.90;;;;;;;8.10;72.51;96657.53;5028021;28;20419;-71
2024/02/15 05:55:57;;;;;;;9.67;7.30;;;;;;;8.16;71.23;96648.69;5028416;28;20521;-70
2024/02/15 05:58:23;;;;;;;10.17;7.50;;;;;;;8.11;71.28;96654.03;5026079;28;20462;-69
2024/02/15 06:00:49;;;;;;;7.60;6.77;;;;;;;8.09;71.27;96658.44;5028444;28;20462;-70
2024/02/15 06:03:15;;;;;;;14.20;7.10;;;;;;;8.24;71.81;96659.75;5028547;28;20176;-69
2024/02/15 06:05:41;;;;;;;8.73;7.20;;;;;;;8.08;71.41;96664.59;5028589;28;20446;-69
2024/02/15 06:08:06;;;;;;;11.40;8.17;;;;;;;8.04;71.58;96663.81;5028137;28;20521;-70
2024/02/15 06:10:32;;;;;;;12.73;8.40;;;;;;;8.06;71.61;96671.63;5023856;28;20930;-70
2024/02/15 06:13:01;;;;;;;10.80;7.00;;;;;;;8.05;71.79;96662.03;5028046;28;20275;-70
2024/02/15 06:15:26;;;;;;;8.73;7.83;;;;;;;8.02;71.41;96660.38;5028168;28;20635;-71
2024/02/15 06:17:52;;;;;;;9.80;7.40;;;;;;;7.97;71.58;96664.91;5027855;28;20484;-70
2024/02/15 06:20:19;;;;;;;13.50;6.93;;;;;;;7.93;72.36;96665.88;5027898;28;20211;-70
2024/02/15 06:22:46;;;;;;;8.77;7.30;;;;;;;7.85;71.90;96666.09;5028257;28;20898;-69
2024/02/15 06:25:13;;;;;;;12.40;6.70;;;;;;;7.87;72.49;96673.91;5023662;28;20545;-70
2024/02/15 06:27:42;;;;;;;7.57;6.73;;;;;;;8.04;70.86;96670.81;5027998;28;20438;-70
2024/02/15 06:41:09;;;;;;;13.87;9.33;;;;;;;8.30;70.32;96684.84;5021192;28;20485;-69
2024/02/15 06:43:35;;;;;;;16.13;9.20;;;;;;;8.37;69.32;96687.22;5028844;28;20422;-69
2024/02/15 06:46:01;;;;;;;13.07;9.03;;;;;;;8.24;69.65;96692.00;5021495;28;20313;-69
2024/02/15 06:48:27;;;;;;;15.77;8.87;;;;;;;8.40;68.32;96681.94;5027669;28;20431;-69
2024/02/15 06:50:52;;;;;;;11.70;9.57;;;;;;;8.63;67.66;96681.22;5021889;28;20457;-69
2024/02/15 06:53:20;;;;;;;10.27;7.60;;;;;;;8.55;68.34;96683.25;5027907;28;20172;-69
2024/02/15 06:55:48;;;;;;;11.67;7.57;;;;;;;9.08;66.70;96680.63;5022928;28;20187;-69
2024/02/15 06:58:16;;;;;;;9.00;8.10;;;;;;;9.67;64.17;96684.72;5027059;28;20442;-68
2024/02/15 07:00:42;;;;;;;13.43;7.80;;;;;;;9.99;62.79;96676.56;5022053;28;20466;-70
2024/02/15 07:03:08;;;;;;;21.13;8.33;;;;;;;10.47;61.38;96673.91;5006733;28;20416;-69
2024/02/15 07:05:34;;;;;;;11.13;7.50;;;;;;;10.92;59.12;96680.00;5006233;28;20415;-68
2024/02/15 07:08:00;;;;;;;12.10;6.63;;;;;;;11.08;58.46;96673.22;5013415;28;20460;-69
2024/02/15 07:10:26;;;;;;;13.97;7.10;;;;;;;11.04;58.70;96676.03;5010784;28;20176;-69
2024/02/15 07:12:51;;;;;;;15.13;8.00;;;;;;;11.59;56.78;96664.00;5015548;28;20422;-67
2024/02/15 07:15:17;;;;;;;9.80;7.50;;;;;;;11.59;56.28;96666.63;5018751;28;20297;-68
2024/02/15 07:17:43;;;;;;;14.33;7.03;;;;;;;11.95;55.56;96673.88;5011721;28;20250;-69
2024/02/15 07:20:12;;;;;;;10.93;7.00;;;;;;;11.80;55.54;96674.50;5004437;28;20203;-68
2024/02/15 07:22:38;;;;;;;13.83;8.00;;;;;;;11.84;55.42;96668.19;5004359;28;20287;-69
2024/02/15 07:25:04;;;;;;;10.90;6.53;;;;;;;11.81;55.29;96671.81;5010855;28;20518;-69
2024/02/15 07:27:29;;;;;;;9.80;6.60;;;;;;;11.49;57.03;96665.34;5019307;28;20206;-70
2024/02/15 07:29:55;;;;;;;9.37;6.60;;;;;;;11.16;57.82;96668.47;5013674;28;20283;-68
2024/02/15 07:32:21;;;;;;;9.20;8.10;;;;;;;10.88;58.45;96666.13;5022266;28;20206;-69
2024/02/15 07:34:47;;;;;;;8.97;8.07;;;;;;;10.43;59.93;96674.94;5012982;28;20430;-69
2024/02/15 07:37:15;;;;;;;12.93;6.87;;;;;;;10.62;59.66;96664.56;5017248;28;20211;-69
2024/02/15 07:39:41;;;;;;;11.53;6.90;;;;;;;10.90;58.46;96666.94;5012608;28;20435;-69
2024/02/15 07:42:08;;;;;;;8.73;7.37;;;;;;;11.38;56.96;96662.31;5018138;28;21228;-69
2024/02/15 07:44:36;;;;;;;12.70;7.33;;;;;;;12.61;54.22;96654.16;5004726;28;20219;-68
2024/02/15 07:47:02;;;;;;;14.17;7.10;;;;;;;13.47;51.35;96657.84;5016340;28;20898;-67
2024/02/15 07:49:27;;;;;;;7.60;6.80;;;;;;;14.34;48.83;96647.94;5017776;28;20592;-68
2024/02/15 07:51:53;;;;;;;11.97;7.70;;;;;;;15.36;46.08;96631.63;5015351;28;20679;-68
2024/02/15 07:54:22;;;;;;;8.77;6.63;;;;;;;16.16;44.07;96634.69;5017352;28;20183;-68
2024/02/15 07:56:48;;;;;;;8.33;6.50;;;;;;;16.71;42.28;96647.94;5013813;28;20183;-68
2024/02/15 07:59:16;;;;;;;8.30;6.80;;;;;;;17.01;41.37;96636.34;5013457;28;20453;-68
2024/02/15 08:01:42;;;;;;;13.90;7.83;;;;;;;17.36;40.82;96630.47;5009891;28;20455;-67
2024/02/15 08:04:08;;;;;;;8.30;7.00;;;;;;;17.58;40.28;96619.28;5012990;28;20441;-69
2024/02/15 08:06:36;;;;;;;8.87;6.83;;;;;;;17.38;40.61;96628.56;5018504;28;20202;-69
2024/02/15 08:09:04;;;;;;;12.13;8.23;;;;;;;17.86;39.64;96625.34;5015578;28;20443;-68
2024/02/15 08:11:30;;;;;;;12.07;8.50;;;;;;;18.23;38.33;96620.94;5014302;28;20458;-69
2024/02/15 08:13:59;;;;;;;10.70;7.53;;;;;;;18.72;37.20;96617.41;5006847;28;20466;-67
2024/02/15 08:16:27;;;;;;;7.80;6.47;;;;;;;18.78;36.97;96614.34;5007387;28;20238;-67
2024/02/15 08:18:54;;;;;;;18.93;8.50;;;;;;;19.63;35.61;96615.97;5004781;28;20852;-68
2024/02/15 08:21:29;;;;;;;21.03;7.30;;;;;;;20.02;34.45;96604.09;5013198;28;20467;-67
2024/02/15 08:23:55;;;;;;;12.00;7.07;;;;;;;19.74;34.32;96599.22;5005205;28;20457;-68
2024/02/15 08:26:21;;;;;;;16.33;5.80;;;;;;;19.91;34.01;96604.06;5003157;28;20944;-68
2024/02/15 08:28:46;;;;;;;20.30;7.20;;;;;;;20.04;33.35;96594.16;5012805;28;20814;-67
2024/02/15 08:31:14;;;;;;;14.20;6.20;;;;;;;19.97;33.53;96587.63;5005365;28;20435;-68
2024/02/15 08:33:40;;;;;;;12.10;6.60;;;;;;;20.27;33.11;96592.34;5005899;28;20187;-68
2024/02/15 08:36:07;;;;;;;16.13;8.03;;;;;;;22.25;40.05;96582.97;5009419;28;20525;-68
2024/02/15 08:38:34;;;;;;;11.33;6.77;;;;;;;23.13;31.79;96575.16;5011169;28;20206;-68
2024/02/15 08:40:59;;;;;;;12.23;6.23;;;;;;;22.37;35.34;96581.91;5009434;28;20473;-68
2024/02/15 08:43:25;;;;;;;22.73;7.90;;;;;;;22.65;35.84;96574.06;5015713;28;20461;-68
2024/02/15 08:45:50;;;;;;;13.43;5.67;;;;;;;22.93;35.22;96576.94;5014007;28;20180;-69
2024/02/15 08:48:16;;;;;;;9.00;6.40;;;;;;;22.29;36.04;96576.38;5011338;28;20214;-68
2024/02/15 08:50:41;;;;;;;8.93;6.67;;;;;;;20.55;33.19;96583.94;5014346;28;20539;-69
2024/02/15 08:53:07;;;;;;;7.67;6.10;;;;;;;19.27;35.28;96582.38;5010113;28;20238;-68
2024/02/15 08:55:35;;;;;;;7.30;6.17;;;;;;;18.78;36.26;96587.78;5022791;28;20175;-68
2024/02/15 08:58:02;;;;;;;8.67;7.67;;;;;;;18.64;36.66;96582.59;5021113;28;20679;-69
2024/02/15 09:00:27;;;;;;;13.20;7.40;;;;;;;18.24;37.54;96580.16;5012605;28;20497;-69
2024/02/15 09:02:53;;;;;;;14.20;7.30;;;;;;;17.80;38.63;96570.84;5014013;28;20434;-69
2024/02/15 09:05:22;;;;;;;8.00;7.30;;;;;;;17.79;38.62;96571.81;5019447;28;20179;-68
2024/02/15 09:07:47;;;;;;;8.60;7.23;;;;;;;17.31;39.77;96579.53;5016247;28;20960;-68
2024/02/15 09:10:16;;;;;;;10.70;7.43;;;;;;;17.05;40.52;96578.66;5018462;28;20431;-69
2024/02/15 09:12:44;;;;;;;11.53;7.67;;;;;;;16.83;40.62;96574.78;5025008;28;20225;-68
2024/02/15 09:15:16;;;;;;;8.10;7.30;;;;;;;16.20;42.12;96581.47;5017620;28;20430;-69
2024/02/15 09:17:43;;;;;;;8.47;7.67;;;;;;;17.31;40.54;96571.59;5013496;28;20537;-69
2024/02/15 09:20:14;;;;;;;8.47;7.23;;;;;;;17.34;40.38;96558.13;5014800;28;20458;-68
2024/02/15 09:22:50;;;;;;;10.23;8.77;;;;;;;17.26;39.99;96566.59;5016433;28;20525;-68
2024/02/15 09:25:15;;;;;;;8.77;7.83;;;;;;;16.79;41.42;96567.13;5017289;28;20488;-68
2024/02/15 09:27:42;;;;;;;8.77;7.53;;;;;;;17.29;40.14;96562.88;5021376;28;20453;-67
2024/02/15 09:30:09;;;;;;;7.73;7.00;;;;;;;17.67;39.65;96556.72;5016674;28;20194;-68
2024/02/15 09:32:38;;;;;;;13.90;8.27;;;;;;;16.82;41.68;96561.63;5018793;28;20433;-67
2024/02/15 09:35:11;;;;;;;10.40;8.20;;;;;;;17.41;39.71;96553.22;5026661;28;20442;-68
2024/02/15 09:37:50;;;;;;;11.40;7.70;;;;;;;18.08;38.48;96547.69;5014096;28;20453;-67
2024/02/15 09:40:17;;;;;;;12.10;8.00;;;;;;;18.04;38.54;96544.41;5015848;28;20493;-68
2024/02/15 09:42:47;;;;;;;8.07;6.90;;;;;;;17.72;38.67;96541.34;5027623;28;20548;-69
2024/02/15 09:45:14;;;;;;;7.63;6.70;;;;;;;16.21;41.37;96539.97;5017647;28;20506;-68
2024/02/15 09:47:41;;;;;;;27.07;9.37;;;;;;;17.03;40.21;96532.81;5015508;28;20536;-68
2024/02/15 09:50:13;;;;;;;43.80;10.90;;;;;;;16.77;41.24;96534.53;5006704;28;20982;-68
2024/02/15 09:52:40;;;;;;;12.60;7.17;;;;;;;17.99;38.42;96527.94;5013857;28;20447;-69
2024/02/15 09:55:12;;;;;;;11.90;6.70;;;;;;;18.20;37.92;96522.91;5019263;28;20957;-69
2024/02/15 09:57:38;;;;;;;10.70;6.67;;;;;;;17.62;38.62;96511.94;5020555;28;20453;-67
2024/02/15 10:00:07;;;;;;;8.50;6.50;;;;;;;17.58;39.14;96515.78;5020304;28;20527;-69
2024/02/15 10:02:35;;;;;;;6.60;5.77;;;;;;;16.44;41.34;96519.91;5016618;28;20203;-67
2024/02/15 10:05:02;;;;;;;8.40;5.50;;;;;;;16.90;40.97;96524.88;5018818;28;20456;-68
2024/02/15 10:07:27;;;;;;;8.23;5.87;;;;;;;17.06;40.67;96516.72;5018909;28;20508;-67
2024/02/15 10:09:54;;;;;;;7.20;5.80;;;;;;;16.45;41.85;96521.63;5018557;28;20988;-68
2024/02/15 10:12:20;;;;;;;9.30;5.90;;;;;;;17.58;39.49;96512.28;5018280;28;20184;-68
2024/02/15 10:14:50;;;;;;;6.70;5.97;;;;;;;18.24;38.37;96511.09;5023092;28;20473;-67
2024/02/15 10:17:18;;;;;;;5.93;5.33;;;;;;;18.17;38.75;96510.69;5017407;28;20798;-69
2024/02/15 10:19:44;;;;;;;8.13;5.40;;;;;;;17.78;39.85;96503.75;5010683;28;20478;-68
2024/02/15 10:22:10;;;;;;;7.00;5.00;;;;;;;18.22;39.11;96502.38;5020290;28;20431;-68
2024/02/15 10:24:39;;;;;;;5.97;5.40;;;;;;;17.95;39.51;96492.81;5024981;28;20275;-68
2024/02/15 10:27:10;;;;;;;8.97;5.40;;;;;;;17.94;39.64;96499.06;5021641;28;20533;-69
2024/02/15 10:29:36;;;;;;;10.63;5.57;;;;;;;18.25;39.10;96494.19;5017240;28;20437;-68
2024/02/15 10:32:03;;;;;;;28.87;8.20;;;;;;;18.65;38.71;96493.06;5006598;28;20435;-69
2024/02/15 10:34:31;;;;;;;8.60;6.00;;;;;;;18.14;39.43;96492.34;5017725;28;20437;-68
2024/02/15 10:37:20;;;;;;;11.20;6.50;;;;;;;17.87;40.26;96491.66;5016076;28;20490;-68
2024/02/15 10:39:46;;;;;;;9.30;6.10;;;;;;;17.66;40.43;96491.34;5023390;28;21048;-68
2024/02/15 10:42:13;;;;;;;10.80;5.33;;;;;;;16.41;44.05;96496.28;5028017;28;20445;-68
2024/02/15 10:44:41;;;;;;;20.57;6.53;;;;;;;16.62;43.49;96486.06;5010018;28;20439;-68
2024/02/15 10:47:08;;;;;;;11.40;5.23;;;;;;;17.05;42.88;96485.84;5017981;28;20830;-69
2024/02/15 10:49:36;;;;;;;25.93;6.80;;;;;;;16.71;43.74;96486.31;5020693;28;20912;-69
2024/02/15 10:52:04;;;;;;;7.30;4.03;;;;;;;16.44;45.03;96478.41;5020285;28;20411;-69
2024/02/15 10:55:05;;;;;;;7.40;4.20;;;;;;;15.84;46.54;96486.72;5026498;28;21062;-68
2024/02/15 10:57:32;;;;;;;4.37;3.70;;;;;;;15.42;47.89;96477.84;5026882;28;20522;-68
2024/02/15 11:00:01;;;;;;;10.83;4.40;;;;;;;16.46;45.72;96470.34;5026613;28;21238;-68
2024/02/15 11:02:34;;;;;;;7.37;4.00;;;;;;;16.38;45.99;96472.66;5026273;28;20418;-68
2024/02/15 11:05:12;;;;;;;6.63;4.20;;;;;;;16.56;45.94;96471.44;5018275;28;20437;-68
2024/02/15 11:07:38;;;;;;;3.90;3.00;;;;;;;17.09;44.97;96456.38;5026198;28;20442;-68
2024/02/15 11:10:08;;;;;;;5.07;3.90;;;;;;;17.38;43.54;96455.31;5026318;28;20423;-68
2024/02/15 11:12:34;;;;;;;19.40;5.07;;;;;;;17.82;43.27;96449.50;5027021;28;20584;-67
2024/02/15 11:15:00;;;;;;;9.70;4.20;;;;;;;18.33;42.43;96446.66;5026478;28;20905;-68
2024/02/15 11:17:40;;;;;;;6.87;3.97;;;;;;;18.39;42.11;96438.22;5026011;28;20452;-68
2024/02/15 11:20:14;;;;;;;5.80;3.83;;;;;;;18.65;41.61;96426.59;5026230;28;20571;-68
2024/02/15 11:22:39;;;;;;;7.07;4.17;;;;;;;17.32;43.98;96438.03;5026422;28;20788;-69
2024/02/15 11:25:11;;;;;;;5.70;3.23;;;;;;;17.53;44.30;96428.53;5027450;28;20430;-68
2024/02/15 11:27:38;;;;;;;10.90;3.50;;;;;;;18.05;43.34;96426.59;5029262;28;20714;-68
2024/02/15 11:30:12;;;;;;;4.40;2.93;;;;;;;17.77;43.50;96427.75;5021559;28;20883;-68
2024/02/15 11:32:49;;;;;;;3.93;2.57;;;;;;;18.32;42.99;96420.22;5020875;28;20434;-67
2024/02/15 11:35:24;;;;;;;4.13;2.97;;;;;;;18.20;42.91;96419.31;5023240;28;20446;-69
2024/02/15 11:37:52;;;;;;;6.33;2.77;;;;;;;17.16;45.63;96416.19;5012853;28;20455;-68
2024/02/15 11:40:26;;;;;;;4.83;2.90;;;;;;;17.78;44.22;96411.69;5019958;28;20492;-68
2024/02/15 11:42:54;;;;;;;3.00;2.17;;;;;;;16.29;47.22;96421.97;5026492;28;20445;-69
2024/02/15 11:45:19;;;;;;;3.90;2.27;;;;;;;16.76;46.66;96413.59;5026793;28;20501;-68